Time;durP1;ratioP1;P1;durP2;ratioP2;P2;SDS_P1;SDS_P2;PMS_P1;PMS_P2;Temp;Humidity;BMP_temperature;BMP_pressure;BME280_temperature;BME280_humidity;BME280_pressure;Samples;Min_cycle;Max_cycle;Signal;HPM_P1;HPM_P2
2023/06/08 00:00:41;;;;;;;26.80;8.57;;;14.20;99.90;;;;;;5052125;28;20232;-76
2023/06/08 00:03:08;;;;;;;19.37;7.77;;;14.20;99.90;;;;;;5058781;28;20189;-74
2023/06/08 00:05:43;;;;;;;16.47;8.63;;;14.20;99.90;;;;;;5060744;28;20189;-75
2023/06/08 00:08:11;;;;;;;14.83;8.40;;;14.10;99.90;;;;;;5059515;28;20212;-75
2023/06/08 00:10:41;;;;;;;15.00;8.07;;;13.80;99.90;;;;;;5062513;28;20538;-76
2023/06/08 00:13:08;;;;;;;16.07;7.50;;;14.90;99.90;;;;;;5076362;28;20235;-76
2023/06/08 00:15:35;;;;;;;18.70;8.70;;;14.70;99.90;;;;;;5068841;28;20254;-75
2023/06/08 00:18:02;;;;;;;18.03;8.53;;;14.00;99.90;;;;;;5078054;28;20204;-75
2023/06/08 00:20:29;;;;;;;15.97;8.17;;;13.90;99.90;;;;;;5083449;28;20879;-76
2023/06/08 00:22:56;;;;;;;14.60;8.07;;;13.90;99.90;;;;;;5081601;28;20230;-77
2023/06/08 00:25:23;;;;;;;21.23;8.03;;;13.90;99.90;;;;;;5084306;28;20215;-75
2023/06/08 00:27:50;;;;;;;21.87;8.70;;;13.90;99.90;;;;;;5080196;28;20216;-75
2023/06/08 00:30:16;;;;;;;16.67;8.70;;;13.80;99.90;;;;;;5077182;28;20211;-76
2023/06/08 00:32:43;;;;;;;16.00;7.90;;;13.80;99.90;;;;;;5089931;28;20215;-74
2023/06/08 00:35:10;;;;;;;15.17;8.63;;;13.80;99.90;;;;;;5082539;28;20207;-75
2023/06/08 00:37:37;;;;;;;17.83;8.63;;;13.80;99.90;;;;;;5078564;28;20684;-74
2023/06/08 00:40:04;;;;;;;18.57;8.93;;;13.70;99.90;;;;;;5083966;28;20220;-75
2023/06/08 00:42:31;;;;;;;16.20;8.13;;;13.70;99.90;;;;;;5080453;28;20973;-76
2023/06/08 00:44:58;;;;;;;14.83;8.03;;;13.70;99.90;;;;;;5080927;28;20516;-76
2023/06/08 00:47:25;;;;;;;20.93;9.83;;;13.60;99.90;;;;;;5079209;28;20223;-77
2023/06/08 00:49:52;;;;;;;18.23;9.30;;;13.60;99.90;;;;;;5081410;28;20299;-75
2023/06/08 00:52:20;;;;;;;18.10;8.57;;;13.50;99.90;;;;;;5082692;28;20231;-74
2023/06/08 00:54:51;;;;;;;17.70;8.40;;;13.50;99.90;;;;;;5065915;28;20636;-75
2023/06/08 00:57:19;;;;;;;20.73;9.67;;;13.40;99.90;;;;;;5080747;28;20196;-75
2023/06/08 00:59:49;;;;;;;19.17;8.57;;;13.40;99.90;;;;;;5082907;28;20241;-75
2023/06/08 01:02:28;;;;;;;16.93;8.37;;;13.40;99.90;;;;;;5082607;28;20298;-75
2023/06/08 01:04:56;;;;;;;16.43;8.47;;;13.30;99.90;;;;;;5085200;28;20600;-74
2023/06/08 01:07:44;;;;;;;19.37;8.90;;;13.30;99.90;;;;;;5070647;28;20208;-77
2023/06/08 01:10:32;;;;;;;13.47;8.27;;;13.30;99.90;;;;;;5078472;28;20215;-75
2023/06/08 01:13:25;;;;;;;16.73;8.73;;;13.20;99.90;;;;;;5077149;28;20243;-73
2023/06/08 01:15:59;;;;;;;15.87;7.97;;;13.10;99.90;;;;;;5061724;28;20223;-75
2023/06/08 01:18:27;;;;;;;18.43;8.80;;;13.10;99.90;;;;;;5085433;28;20246;-75
2023/06/08 01:21:14;;;;;;;18.23;8.83;;;13.10;99.90;;;;;;5081419;28;20227;-75
2023/06/08 01:24:11;;;;;;;17.30;8.40;;;13.10;99.90;;;;;;5064548;28;20302;-74
2023/06/08 01:26:43;;;;;;;19.67;8.97;;;13.10;99.90;;;;;;5079070;28;20196;-75
2023/06/08 01:29:13;;;;;;;18.00;8.90;;;13.00;99.90;;;;;;5080679;28;20233;-75
2023/06/08 01:31:40;;;;;;;14.43;8.63;;;12.90;99.90;;;;;;5080679;28;20220;-75
2023/06/08 01:34:08;;;;;;;16.03;7.87;;;12.90;99.90;;;;;;5085181;28;20203;-76
2023/06/08 01:36:53;;;;;;;15.77;8.37;;;12.90;99.90;;;;;;5080922;28;20219;-74
2023/06/08 01:39:44;;;;;;;15.30;8.30;;;13.00;99.90;;;;;;5066491;28;20212;-74
2023/06/08 01:42:14;;;;;;;18.67;9.10;;;12.90;99.90;;;;;;5075997;28;20229;-76
2023/06/08 01:44:45;;;;;;;13.93;8.17;;;12.90;99.90;;;;;;5085597;28;20241;-77
2023/06/08 01:47:14;;;;;;;22.97;9.13;;;12.90;99.90;;;;;;5083914;28;20575;-75
2023/06/08 01:49:42;;;;;;;19.97;8.43;;;12.90;99.90;;;;;;5078756;28;20667;-75
2023/06/08 01:52:10;;;;;;;20.70;9.20;;;13.00;99.90;;;;;;5061577;28;20640;-75
2023/06/08 01:54:37;;;;;;;18.03;9.33;;;12.90;99.90;;;;;;5081434;28;20204;-74
2023/06/08 01:57:05;;;;;;;15.27;9.07;;;12.80;99.90;;;;;;5081048;28;20216;-74
2023/06/08 01:59:32;;;;;;;19.83;8.20;;;12.80;99.90;;;;;;5083243;28;20197;-76
2023/06/08 02:02:02;;;;;;;17.87;9.03;;;12.80;99.90;;;;;;5081852;28;20271;-75
2023/06/08 02:04:30;;;;;;;19.63;8.83;;;12.80;99.90;;;;;;5078611;28;20291;-74
2023/06/08 02:06:57;;;;;;;18.37;8.77;;;12.80;99.90;;;;;;5081077;28;20425;-74
2023/06/08 02:09:23;;;;;;;18.77;9.37;;;12.70;99.90;;;;;;5082188;28;20211;-75
2023/06/08 02:12:01;;;;;;;17.73;9.03;;;12.80;99.90;;;;;;5080246;28;20235;-76
2023/06/08 02:14:28;;;;;;;15.50;8.67;;;12.80;99.90;;;;;;5057635;28;20737;-76
2023/06/08 02:16:55;;;;;;;21.70;9.67;;;12.80;99.90;;;;;;5062456;28;20223;-76
2023/06/08 02:19:22;;;;;;;20.07;9.20;;;12.80;99.90;;;;;;5075595;28;20200;-75
2023/06/08 02:21:49;;;;;;;20.57;9.10;;;12.80;99.90;;;;;;5060057;28;20230;-75
2023/06/08 02:24:18;;;;;;;20.17;8.97;;;12.80;99.90;;;;;;5080776;28;20599;-74
2023/06/08 02:26:45;;;;;;;25.23;9.90;;;12.70;99.90;;;;;;5080203;28;20276;-75
2023/06/08 02:29:11;;;;;;;22.50;8.63;;;12.80;99.90;;;;;;5080344;28;20207;-75
2023/06/08 02:31:38;;;;;;;18.50;10.00;;;12.80;99.90;;;;;;5081829;28;20310;-74
2023/06/08 02:34:05;;;;;;;18.67;10.00;;;12.90;99.90;;;;;;5080363;28;20207;-75
2023/06/08 02:36:33;;;;;;;20.57;9.50;;;12.80;99.90;;;;;;5075901;28;20580;-75
2023/06/08 02:39:00;;;;;;;23.10;10.80;;;12.80;99.90;;;;;;5081239;28;20201;-74
2023/06/08 02:41:27;;;;;;;22.60;9.87;;;12.90;99.90;;;;;;5074293;28;20224;-74
2023/06/08 02:43:53;;;;;;;21.83;9.37;;;12.90;99.90;;;;;;5059371;28;20266;-75
2023/06/08 02:46:20;;;;;;;23.63;10.03;;;12.90;99.90;;;;;;5078054;28;20304;-76
2023/06/08 02:48:47;;;;;;;20.30;9.57;;;12.90;99.90;;;;;;5080646;28;20291;-75
2023/06/08 02:51:16;;;;;;;22.37;10.77;;;13.00;99.90;;;;;;5077900;28;20314;-75
2023/06/08 02:53:43;;;;;;;18.93;9.87;;;13.00;99.90;;;;;;5076360;28;20208;-75
2023/06/08 02:56:11;;;;;;;23.17;10.43;;;13.00;99.90;;;;;;5083014;28;20268;-76
2023/06/08 02:58:41;;;;;;;18.83;10.17;;;13.00;99.90;;;;;;5085342;28;20206;-75
2023/06/08 03:01:14;;;;;;;17.80;10.47;;;13.00;99.90;;;;;;5064558;28;20228;-76
2023/06/08 03:03:48;;;;;;;20.20;10.60;;;13.00;99.90;;;;;;5090491;28;20206;-76
2023/06/08 03:06:19;;;;;;;21.70;12.07;;;13.00;99.90;;;;;;5081654;28;20282;-75
2023/06/08 03:08:53;;;;;;;23.50;10.23;;;12.90;99.90;;;;;;5085062;28;20655;-76
2023/06/08 03:11:22;;;;;;;22.07;11.40;;;12.90;99.90;;;;;;5079142;28;20284;-74
2023/06/08 03:13:49;;;;;;;21.40;10.67;;;12.80;99.90;;;;;;5079530;28;20210;-75
2023/06/08 03:16:16;;;;;;;20.43;11.30;;;12.80;99.90;;;;;;5075134;28;20236;-75
2023/06/08 03:18:44;;;;;;;20.53;10.70;;;12.80;99.90;;;;;;5080212;28;20207;-76
2023/06/08 03:21:12;;;;;;;22.27;11.13;;;12.80;99.90;;;;;;5073390;28;20312;-75
2023/06/08 03:23:39;;;;;;;26.07;12.53;;;12.70;99.90;;;;;;5058452;28;20697;-76
2023/06/08 03:26:06;;;;;;;23.93;11.30;;;12.70;99.90;;;;;;5076967;28;20300;-75
2023/06/08 03:28:32;;;;;;;22.13;11.17;;;12.60;99.90;;;;;;5086015;28;20223;-74
2023/06/08 03:31:00;;;;;;;25.20;11.27;;;12.60;99.90;;;;;;5071180;28;20311;-75
2023/06/08 03:33:27;;;;;;;24.67;11.20;;;12.60;99.90;;;;;;5079638;28;20646;-74
2023/06/08 03:35:54;;;;;;;25.03;12.17;;;12.60;99.90;;;;;;5074199;28;20212;-74
2023/06/08 03:38:20;;;;;;;22.97;11.97;;;12.70;99.90;;;;;;5062093;28;20207;-75
2023/06/08 03:40:47;;;;;;;26.60;11.90;;;12.70;99.90;;;;;;5076167;28;20741;-74
2023/06/08 03:43:14;;;;;;;24.63;12.20;;;12.70;99.90;;;;;;5080980;28;20215;-77
2023/06/08 03:45:41;;;;;;;25.87;11.90;;;12.70;99.90;;;;;;5077853;28;20216;-74
2023/06/08 03:48:08;;;;;;;26.40;12.57;;;12.70;99.90;;;;;;5088614;28;20215;-74
2023/06/08 03:50:35;;;;;;;22.80;11.60;;;12.70;99.90;;;;;;5063780;28;20266;-75
2023/06/08 03:53:01;;;;;;;28.07;12.37;;;12.70;99.90;;;;;;5081495;28;20216;-75
2023/06/08 03:55:28;;;;;;;24.30;12.00;;;12.80;99.90;;;;;;5081585;28;20265;-74
2023/06/08 03:57:55;;;;;;;23.77;11.83;;;12.70;99.90;;;;;;5075233;28;20198;-74
2023/06/08 04:00:22;;;;;;;22.63;11.40;;;12.70;99.90;;;;;;5076239;28;20702;-74
2023/06/08 04:02:50;;;;;;;23.97;12.17;;;12.80;99.90;;;;;;5077196;28;20288;-74
2023/06/08 04:05:17;;;;;;;25.33;11.70;;;12.80;99.90;;;;;;5082900;28;20196;-75
2023/06/08 04:07:47;;;;;;;20.83;11.57;;;12.80;99.90;;;;;;5082635;28;20210;-76
2023/06/08 04:10:14;;;;;;;21.43;11.33;;;12.90;99.90;;;;;;5080493;28;20192;-78
2023/06/08 04:12:41;;;;;;;22.03;11.30;;;13.00;99.90;;;;;;5080488;28;20228;-74
2023/06/08 04:15:09;;;;;;;22.03;12.27;;;13.00;99.90;;;;;;5064591;28;20683;-75
2023/06/08 04:17:36;;;;;;;23.80;11.70;;;13.00;99.90;;;;;;5083034;28;20281;-76
2023/06/08 04:20:04;;;;;;;22.13;12.17;;;13.10;99.90;;;;;;5079929;28;20684;-75
2023/06/08 04:22:31;;;;;;;23.47;12.57;;;13.20;99.90;;;;;;5083570;28;20250;-77
2023/06/08 04:24:57;;;;;;;26.63;12.27;;;13.30;99.90;;;;;;5074246;28;20269;-77
2023/06/08 04:27:24;;;;;;;28.43;12.07;;;13.40;99.90;;;;;;5086997;28;20204;-77
2023/06/08 04:29:52;;;;;;;22.30;12.40;;;13.50;99.90;;;;;;5081314;28;20210;-75
2023/06/08 04:32:20;;;;;;;23.87;12.10;;;13.50;99.90;;;;;;5065234;28;20224;-76
2023/06/08 04:34:50;;;;;;;21.43;11.53;;;13.50;99.90;;;;;;5081900;28;20196;-74
2023/06/08 04:37:17;;;;;;;20.60;11.43;;;13.60;99.90;;;;;;5080430;28;20216;-75
2023/06/08 04:39:45;;;;;;;22.67;11.57;;;13.70;99.90;;;;;;5077084;28;20537;-75
2023/06/08 04:42:11;;;;;;;20.37;10.70;;;13.70;99.90;;;;;;5084097;28;20346;-77
2023/06/08 04:44:38;;;;;;;20.03;10.80;;;13.80;99.90;;;;;;5080366;28;20215;-77
2023/06/08 04:47:07;;;;;;;20.10;11.50;;;13.80;99.90;;;;;;5075745;28;20757;-75
2023/06/08 04:49:34;;;;;;;28.87;11.10;;;13.80;99.90;;;;;;5085477;28;20277;-75
2023/06/08 04:52:01;;;;;;;23.70;11.20;;;13.80;99.90;;;;;;5091294;28;20269;-76
2023/06/08 04:54:28;;;;;;;22.97;12.50;;;13.80;99.90;;;;;;5086529;28;20250;-76
2023/06/08 04:56:59;;;;;;;19.27;11.10;;;13.80;99.90;;;;;;5071590;28;20205;-75
2023/06/08 04:59:26;;;;;;;21.97;11.40;;;13.70;99.90;;;;;;5086017;28;20192;-76
2023/06/08 05:01:54;;;;;;;21.70;11.87;;;13.80;99.90;;;;;;5080916;28;20232;-77
2023/06/08 05:04:21;;;;;;;23.27;11.53;;;13.90;99.90;;;;;;5066631;28;20208;-75
2023/06/08 05:06:48;;;;;;;27.60;11.53;;;13.90;99.90;;;;;;5080860;28;20199;-75
2023/06/08 05:09:15;;;;;;;19.47;11.40;;;13.90;99.90;;;;;;5083475;28;20215;-75
2023/06/08 05:11:41;;;;;;;22.07;12.17;;;13.80;99.90;;;;;;5082712;28;20259;-74
2023/06/08 05:14:10;;;;;;;20.17;11.03;;;13.80;99.90;;;;;;5081075;28;20265;-76
2023/06/08 05:16:37;;;;;;;22.40;11.17;;;13.80;99.90;;;;;;5083079;28;20259;-75
2023/06/08 05:19:07;;;;;;;21.27;11.10;;;13.90;99.90;;;;;;5083213;28;20687;-75
2023/06/08 05:21:37;;;;;;;20.90;10.63;;;14.00;99.90;;;;;;5079891;28;20219;-75
2023/06/08 05:24:04;;;;;;;21.07;10.40;;;14.00;99.90;;;;;;5079235;28;20200;-75
2023/06/08 05:26:31;;;;;;;17.80;10.10;;;14.10;99.90;;;;;;5079021;28;20240;-75
2023/06/08 05:28:58;;;;;;;18.20;9.63;;;14.60;99.90;;;;;;5079226;28;20649;-75
2023/06/08 05:31:26;;;;;;;22.57;9.57;;;15.20;99.90;;;;;;5078507;28;20696;-76
2023/06/08 05:33:53;;;;;;;17.33;9.00;;;15.80;99.90;;;;;;5078654;28;20215;-75
2023/06/08 05:36:20;;;;;;;21.52;9.02;;;;;;;;;;5061099;28;20200;-75
2023/06/08 05:38:47;;;;;;;17.25;9.52;;;16.90;99.90;;;;;;5078661;28;20548;-76
2023/06/08 05:41:14;;;;;;;17.08;9.30;;;17.30;99.90;;;;;;5083237;28;20255;-77
2023/06/08 05:43:42;;;;;;;17.85;9.73;;;17.70;99.90;;;;;;5081132;28;20200;-77
2023/06/08 05:46:10;;;;;;;18.33;9.20;;;18.10;99.90;;;;;;5076894;28;20252;-77
2023/06/08 05:48:37;;;;;;;16.50;9.82;;;18.50;99.90;;;;;;5076701;28;20286;-77
2023/06/08 05:51:04;;;;;;;18.63;9.43;;;18.80;99.90;;;;;;5080579;28;20242;-78
2023/06/08 05:53:31;;;;;;;16.83;9.63;;;19.10;99.90;;;;;;5080568;28;20220;-76
2023/06/08 05:55:58;;;;;;;16.95;10.48;;;19.40;99.90;;;;;;5089497;28;20256;-77
2023/06/08 05:58:24;;;;;;;17.88;10.05;;;19.40;99.90;;;;;;5081590;28;20208;-77
2023/06/08 06:01:04;;;;;;;21.25;9.73;;;19.10;99.90;;;;;;5075030;28;20224;-77
2023/06/08 06:03:31;;;;;;;20.70;10.57;;;18.70;99.90;;;;;;5075192;28;20243;-77
2023/06/08 06:05:58;;;;;;;21.58;10.77;;;18.60;99.90;;;;;;5060325;28;20193;-78
2023/06/08 06:08:25;;;;;;;21.63;10.85;;;18.60;99.90;;;;;;5081592;28;20208;-77
2023/06/08 06:10:52;;;;;;;17.02;9.60;;;18.70;99.90;;;;;;5080371;28;20237;-77
2023/06/08 06:13:19;;;;;;;15.90;9.18;;;18.90;99.90;;;;;;5063688;28;20208;-78
2023/06/08 06:15:46;;;;;;;16.58;9.07;;;19.60;99.90;;;;;;5059481;28;20671;-79
2023/06/08 06:18:13;;;;;;;16.42;10.07;;;;;;;;;;5056799;28;20213;-78
2023/06/08 06:20:40;;;;;;;11.77;8.52;;;20.40;99.90;;;;;;5056129;28;20232;-78
2023/06/08 06:23:06;;;;;;;19.92;8.77;;;20.80;99.90;;;;;;5057197;28;20233;-78
2023/06/08 06:25:35;;;;;;;13.32;8.35;;;21.10;99.90;;;;;;5059249;28;20205;-79
2023/06/08 06:28:11;;;;;;;12.57;8.60;;;21.50;99.90;;;;;;5042807;28;20201;-78
2023/06/08 06:30:38;;;;;;;12.43;9.00;;;21.70;99.90;;;;;;5061123;28;20204;-79
2023/06/08 06:33:04;;;;;;;14.98;8.77;;;21.80;99.90;;;;;;5070189;28;20204;-80
2023/06/08 06:35:31;;;;;;;14.68;8.35;;;21.70;99.90;;;;;;5059219;28;20200;-78
2023/06/08 06:37:58;;;;;;;12.95;8.35;;;21.90;99.90;;;;;;5061467;28;20213;-79
2023/06/08 06:40:25;;;;;;;13.20;7.90;;;22.00;99.90;;;;;;5047642;28;20212;-78
2023/06/08 06:42:52;;;;;;;16.42;8.38;;;22.20;99.90;;;;;;5057045;28;20233;-78
2023/06/08 06:45:19;;;;;;;13.02;8.18;;;22.40;99.90;;;;;;5037194;28;20334;-78
2023/06/08 06:47:45;;;;;;;19.70;8.63;;;22.70;99.90;;;;;;5064104;28;20219;-77
2023/06/08 06:50:12;;;;;;;13.27;8.10;;;22.50;99.90;;;;;;5043496;28;20208;-78
2023/06/08 06:52:39;;;;;;;12.10;7.65;;;22.70;99.90;;;;;;5054822;28;20263;-80
2023/06/08 06:55:06;;;;;;;15.20;7.20;;;22.90;99.90;;;;;;5058864;28;20263;-79
2023/06/08 06:57:34;;;;;;;11.15;7.80;;;23.30;99.90;;;;;;5055776;28;20741;-78
2023/06/08 07:00:01;;;;;;;14.68;8.15;;;23.30;99.90;;;;;;5059585;28;20209;-78
2023/06/08 07:02:28;;;;;;;10.85;8.02;;;23.30;99.90;;;;;;5064930;28;20700;-78
2023/06/08 07:04:58;;;;;;;15.55;8.57;;;23.60;99.90;;;;;;5068152;28;20222;-79
2023/06/08 07:07:26;;;;;;;10.48;7.60;;;23.90;99.90;;;;;;5057117;28;20211;-78
2023/06/08 07:09:53;;;;;;;15.63;8.15;;;24.20;99.90;;;;;;5058596;28;20205;-80
2023/06/08 07:12:20;;;;;;;16.63;8.55;;;24.20;99.90;;;;;;5068963;28;20228;-79
2023/06/08 07:14:46;;;;;;;14.45;8.48;;;24.30;99.90;;;;;;5078853;28;20208;-79
2023/06/08 07:17:14;;;;;;;15.18;8.43;;;24.40;99.90;;;;;;5075262;28;20216;-77
2023/06/08 07:19:42;;;;;;;14.52;7.68;;;24.50;99.90;;;;;;5080956;28;20283;-78
2023/06/08 07:22:09;;;;;;;13.75;7.88;;;24.70;99.90;;;;;;5059804;28;20754;-78
2023/06/08 07:24:56;;;;;;;11.65;7.55;;;24.90;99.90;;;;;;5077631;28;20677;-78
2023/06/08 07:27:44;;;;;;;15.13;8.43;;;25.00;99.90;;;;;;5075827;28;20211;-78
2023/06/08 07:30:12;;;;;;;12.52;7.35;;;25.30;99.90;;;;;;5061293;28;20204;-78
2023/06/08 07:32:39;;;;;;;10.95;7.68;;;25.60;99.90;;;;;;5080867;28;20223;-78
2023/06/08 07:35:06;;;;;;;18.60;8.82;;;25.40;99.90;;;;;;5081595;28;20214;-78
2023/06/08 07:37:35;;;;;;;13.05;7.80;;;25.10;99.90;;;;;;5081360;28;20199;-78
2023/06/08 07:40:05;;;;;;;10.90;8.10;;;24.70;99.90;;;;;;5076812;28;20208;-79
2023/06/08 07:42:32;;;;;;;20.50;9.10;;;24.50;99.90;;;;;;5072778;28;20241;-80
2023/06/08 07:45:00;;;;;;;16.83;8.43;;;24.20;99.90;;;;;;5076362;28;20214;-79
2023/06/08 07:47:27;;;;;;;18.77;8.95;;;24.10;99.90;;;;;;5076581;28;20673;-78
2023/06/08 07:49:53;;;;;;;17.98;8.90;;;23.80;99.90;;;;;;5079614;28;20195;-80
2023/06/08 07:52:20;;;;;;;13.75;8.38;;;23.50;99.90;;;;;;5077653;28;20195;-78
2023/06/08 07:54:47;;;;;;;15.10;9.00;;;23.00;99.90;;;;;;5077319;28;20229;-78
2023/06/08 07:57:14;;;;;;;12.13;9.15;;;23.00;99.90;;;;;;5079540;28;20204;-79
2023/06/08 07:59:41;;;;;;;16.70;9.77;;;21.60;99.90;;;;;;5076030;28;20280;-79
2023/06/08 08:02:09;;;;;;;18.67;10.25;;;21.20;99.90;;;;;;5062180;28;20258;-81
2023/06/08 08:04:36;;;;;;;14.65;9.40;;;21.50;99.90;;;;;;5077511;28;20560;-76
2023/06/08 08:07:04;;;;;;;15.48;9.13;;;20.70;99.90;;;;;;5080254;28;20339;-76
2023/06/08 08:09:30;;;;;;;16.60;8.85;;;20.50;99.90;;;;;;5070934;28;20212;-77
2023/06/08 08:11:57;;;;;;;20.02;9.07;;;20.90;99.90;;;;;;5080214;28;20484;-79
2023/06/08 08:14:24;;;;;;;18.77;9.80;;;20.50;99.90;;;;;;5073592;28;20235;-77
2023/06/08 08:16:51;;;;;;;19.90;9.52;;;20.40;99.90;;;;;;5065199;28;20219;-78
2023/06/08 08:19:18;;;;;;;18.52;9.75;;;20.40;99.90;;;;;;5077225;28;20204;-75
2023/06/08 08:21:45;;;;;;;20.48;9.35;;;20.40;99.90;;;;;;5076664;28;21108;-78
2023/06/08 08:24:12;;;;;;;18.77;9.65;;;20.40;99.90;;;;;;5075614;28;20377;-77
2023/06/08 08:26:43;;;;;;;19.30;9.75;;;20.30;99.90;;;;;;5078589;28;20633;-77
2023/06/08 08:29:10;;;;;;;18.15;9.07;;;20.30;99.90;;;;;;5073572;28;20631;-79
2023/06/08 08:31:36;;;;;;;18.42;9.25;;;20.20;99.90;;;;;;5080749;28;20599;-77
2023/06/08 08:34:03;;;;;;;17.00;8.80;;;20.30;99.90;;;;;;5084109;28;20223;-77
2023/06/08 08:36:30;;;;;;;18.85;9.43;;;20.30;99.90;;;;;;5080714;28;21237;-78
2023/06/08 08:38:57;;;;;;;18.75;9.40;;;20.20;99.90;;;;;;5063816;28;20547;-77
2023/06/08 08:41:28;;;;;;;16.80;9.68;;;20.30;99.90;;;;;;5082707;28;20205;-77
2023/06/08 08:44:05;;;;;;;16.55;9.35;;;20.30;99.90;;;;;;5077211;28;20263;-84
2023/06/08 08:46:39;;;;;;;19.05;9.60;;;20.20;99.90;;;;;;5061151;28;20307;-80
2023/06/08 08:49:13;;;;;;;15.93;9.77;;;20.10;99.90;;;;;;5082053;28;20574;-81
2023/06/08 08:51:40;;;;;;;17.13;10.20;;;20.20;99.90;;;;;;5080055;28;20602;-81
2023/06/08 08:54:09;;;;;;;25.25;10.13;;;20.10;99.90;;;;;;5088049;28;20272;-81
2023/06/08 08:56:37;;;;;;;17.20;10.00;;;20.20;99.90;;;;;;5085417;28;20554;-81
2023/06/08 08:59:05;;;;;;;15.23;9.45;;;20.40;99.90;;;;;;5078267;28;20208;-81
2023/06/08 09:01:33;;;;;;;18.10;8.98;;;20.40;99.90;;;;;;5070431;28;20228;-81
2023/06/08 09:04:00;;;;;;;19.63;10.57;;;20.50;99.90;;;;;;5080233;28;20235;-81
2023/06/08 09:06:30;;;;;;;18.30;9.90;;;20.50;99.90;;;;;;5085213;28;20226;-81
2023/06/08 09:08:57;;;;;;;19.75;10.00;;;20.60;99.90;;;;;;5094629;28;20256;-81
2023/06/08 09:11:24;;;;;;;18.77;9.38;;;20.80;99.90;;;;;;5080806;28;20200;-82
2023/06/08 09:14:07;;;;;;;18.45;9.57;;;21.00;99.90;;;;;;5085266;28;20212;-82
2023/06/08 09:16:43;;;;;;;16.70;9.50;;;20.90;99.90;;;;;;5088855;28;20577;-82
2023/06/08 09:19:11;;;;;;;18.65;9.48;;;20.90;99.90;;;;;;5084815;28;20286;-81
2023/06/08 09:21:43;;;;;;;19.48;11.05;;;20.90;99.90;;;;;;5084610;28;20208;-81
2023/06/08 09:24:14;;;;;;;18.25;10.00;;;21.00;99.90;;;;;;5079725;28;20588;-80
2023/06/08 09:26:47;;;;;;;19.48;9.63;;;21.30;99.90;;;;;;5069288;28;20206;-80
2023/06/08 09:29:43;;;;;;;16.27;9.82;;;21.50;99.90;;;;;;5078415;28;20216;-80
2023/06/08 09:32:13;;;;;;;15.27;9.57;;;21.90;99.90;;;;;;5086998;28;20228;-80
2023/06/08 09:34:53;;;;;;;22.42;10.15;;;22.20;99.90;;;;;;5080816;28;20211;-82
2023/06/08 09:37:25;;;;;;;15.95;9.27;;;22.60;99.90;;;;;;5083078;28;20273;-81
2023/06/08 09:39:54;;;;;;;14.55;9.55;;;22.90;99.90;;;;;;5079526;28;20249;-81
2023/06/08 09:42:21;;;;;;;19.70;9.52;;;;;;;;;;5078821;28;20267;-81
2023/06/08 09:44:49;;;;;;;15.93;9.50;;;23.40;99.90;;;;;;5077003;28;20567;-82
2023/06/08 09:47:25;;;;;;;15.30;9.43;;;23.80;99.90;;;;;;5062541;28;20225;-81
2023/06/08 09:49:54;;;;;;;16.52;9.73;;;23.90;99.90;;;;;;5065570;28;21072;-82
2023/06/08 09:52:23;;;;;;;19.75;9.40;;;24.30;99.90;;;;;;5079622;28;20209;-81
2023/06/08 09:54:51;;;;;;;14.13;8.45;;;24.40;99.90;;;;;;5084044;28;20739;-83
2023/06/08 09:57:20;;;;;;;18.33;8.57;;;24.60;99.90;;;;;;5085958;28;20204;-82
2023/06/08 10:00:18;;;;;;;16.58;8.55;;;24.70;99.90;;;;;;5088455;28;20242;-83
2023/06/08 10:03:14;;;;;;;14.45;8.85;;;24.80;99.90;;;;;;5079486;28;20238;-82
2023/06/08 10:05:45;;;;;;;17.10;7.93;;;24.90;99.90;;;;;;5063564;28;20204;-84
2023/06/08 10:08:15;;;;;;;13.57;8.50;;;24.90;99.90;;;;;;5077898;28;20204;-82
2023/06/08 10:10:43;;;;;;;18.20;8.48;;;24.90;99.90;;;;;;5079530;28;20660;-82
2023/06/08 10:13:10;;;;;;;11.20;8.15;;;24.90;99.90;;;;;;5082187;28;20629;-80
2023/06/08 10:15:38;;;;;;;14.07;7.68;;;25.00;99.90;;;;;;5081761;28;20208;-81
2023/06/08 10:18:06;;;;;;;14.13;7.53;;;25.00;99.90;;;;;;5075702;28;20204;-83
2023/06/08 10:20:33;;;;;;;14.88;8.45;;;25.10;99.90;;;;;;5081907;28;20289;-81
2023/06/08 10:23:01;;;;;;;12.98;7.13;;;25.10;99.90;;;;;;5081858;28;20664;-80
2023/06/08 10:25:30;;;;;;;13.05;7.30;;;25.30;99.90;;;;;;5085560;28;20211;-79
2023/06/08 10:28:05;;;;;;;13.13;7.63;;;25.50;99.90;;;;;;5079235;28;20622;-78
2023/06/08 10:30:41;;;;;;;12.00;7.55;;;25.40;99.90;;;;;;5055177;28;20222;-78
2023/06/08 10:33:15;;;;;;;12.85;7.20;;;24.80;99.90;;;;;;5078111;28;20206;-77
2023/06/08 10:36:01;;;;;;;13.45;7.43;;;24.50;99.90;;;;;;5077182;28;20200;-78
2023/06/08 10:38:29;;;;;;;16.75;8.30;;;24.30;99.90;;;;;;5065856;28;20211;-80
2023/06/08 10:40:56;;;;;;;15.38;8.05;;;23.90;99.90;;;;;;5075584;28;20201;-79
2023/06/08 10:43:27;;;;;;;16.15;6.60;;;23.90;99.90;;;;;;5081771;28;20695;-80
2023/06/08 10:46:14;;;;;;;12.48;6.95;;;24.20;99.90;;;;;;5081374;28;20208;-81
2023/06/08 10:48:44;;;;;;;11.52;6.90;;;24.50;99.90;;;;;;5075046;28;20223;-80
2023/06/08 10:51:25;;;;;;;11.38;6.82;;;24.90;99.90;;;;;;5078750;28;20291;-81
2023/06/08 10:53:57;;;;;;;11.93;6.45;;;25.20;99.90;;;;;;5080702;28;20272;-80
2023/06/08 10:56:27;;;;;;;10.13;7.45;;;25.40;99.90;;;;;;5068430;28;20195;-79
2023/06/08 10:58:55;;;;;;;13.05;7.75;;;25.50;99.90;;;;;;5081517;28;20239;-81
2023/06/08 11:01:28;;;;;;;11.60;6.70;;;25.90;99.90;;;;;;5081284;28;20262;-79
2023/06/08 11:03:58;;;;;;;11.07;6.50;;;25.60;99.90;;;;;;5068156;28;20216;-82
2023/06/08 11:06:29;;;;;;;10.90;6.72;;;26.10;99.90;;;;;;5082199;28;20231;-80
2023/06/08 11:08:58;;;;;;;13.75;6.60;;;25.80;99.90;;;;;;5071969;28;20200;-80
2023/06/08 11:11:26;;;;;;;9.07;7.00;;;26.30;99.90;;;;;;5091231;28;20203;-83
2023/06/08 11:13:56;;;;;;;9.15;6.18;;;26.20;99.90;;;;;;5095039;28;20591;-80
2023/06/08 11:16:23;;;;;;;10.85;6.70;;;26.10;99.90;;;;;;5101100;28;20236;-79
2023/06/08 11:18:52;;;;;;;11.57;6.20;;;26.20;99.90;;;;;;5094286;28;20211;-79
2023/06/08 11:21:23;;;;;;;12.52;6.20;;;26.40;99.90;;;;;;5097567;28;20260;-79
2023/06/08 11:23:50;;;;;;;11.45;6.00;;;26.40;99.90;;;;;;5095403;28;20289;-81
2023/06/08 11:26:21;;;;;;;9.60;6.20;;;26.70;99.90;;;;;;5099095;28;20226;-80
2023/06/08 11:28:49;;;;;;;12.55;6.30;;;26.80;99.90;;;;;;5113882;28;20191;-81
2023/06/08 11:31:16;;;;;;;10.48;6.03;;;27.10;99.90;;;;;;5113289;28;20219;-80
2023/06/08 11:33:49;;;;;;;11.18;6.07;;;27.10;99.90;;;;;;5097607;28;20790;-79
2023/06/08 11:36:16;;;;;;;8.32;5.97;;;27.30;99.90;;;;;;5097798;28;20203;-80
2023/06/08 11:38:43;;;;;;;11.88;6.40;;;27.40;99.90;;;;;;5096345;28;20706;-80
2023/06/08 11:41:10;;;;;;;8.35;5.40;;;27.40;99.90;;;;;;5097969;28;20252;-80
2023/06/08 11:43:38;;;;;;;15.02;6.30;;;27.30;99.90;;;;;;5114884;28;20280;-80
2023/06/08 11:46:05;;;;;;;9.38;5.45;;;27.30;99.90;;;;;;5101922;28;20203;-80
2023/06/08 11:48:32;;;;;;;8.32;5.80;;;27.30;99.90;;;;;;5097786;28;20205;-80
2023/06/08 11:51:00;;;;;;;9.18;5.40;;;27.40;99.90;;;;;;5095999;28;20245;-79
2023/06/08 11:53:26;;;;;;;8.68;5.30;;;27.40;99.90;;;;;;5100946;28;20311;-80
2023/06/08 11:55:55;;;;;;;11.70;5.18;;;27.60;99.90;;;;;;5084758;28;20207;-79
2023/06/08 11:58:29;;;;;;;9.73;6.10;;;27.30;99.90;;;;;;5101564;28;20718;-79
2023/06/08 12:01:07;;;;;;;10.80;5.57;;;27.50;99.90;;;;;;5081428;28;20221;-77
2023/06/08 12:03:46;;;;;;;8.15;4.97;;;27.50;99.90;;;;;;5096710;28;20699;-79
2023/06/08 12:06:14;;;;;;;11.48;6.07;;;27.50;99.90;;;;;;5102388;28;20613;-79
2023/06/08 12:08:41;;;;;;;8.18;5.43;;;27.70;99.90;;;;;;5087422;28;20204;-80
2023/06/08 12:11:10;;;;;;;11.57;5.53;;;27.90;99.90;;;;;;5107219;28;20199;-78
2023/06/08 12:13:39;;;;;;;9.15;5.80;;;28.00;99.90;;;;;;5102006;28;20450;-77
2023/06/08 12:16:11;;;;;;;10.30;5.63;;;28.10;99.90;;;;;;5100925;28;20699;-80
2023/06/08 12:18:43;;;;;;;10.68;6.10;;;28.10;99.50;;;;;;5098185;28;20530;-78
2023/06/08 12:21:15;;;;;;;15.40;5.93;;;28.20;99.50;;;;;;5101036;28;20237;-79
2023/06/08 12:23:43;;;;;;;9.65;5.30;;;28.30;99.00;;;;;;5102057;28;20239;-79
2023/06/08 12:26:11;;;;;;;11.55;5.60;;;28.30;98.50;;;;;;5085056;28;20282;-80
2023/06/08 12:28:38;;;;;;;7.88;5.20;;;28.20;99.20;;;;;;5103904;28;20539;-77
2023/06/08 12:31:05;;;;;;;8.90;5.30;;;28.20;99.30;;;;;;5083319;28;20224;-78
2023/06/08 12:33:32;;;;;;;8.68;5.63;;;28.40;99.20;;;;;;5103629;28;20199;-76
2023/06/08 12:36:00;;;;;;;11.63;5.65;;;28.50;99.00;;;;;;5081766;28;20295;-76
2023/06/08 12:38:28;;;;;;;11.48;5.55;;;28.50;98.30;;;;;;5118177;27;20628;-76
2023/06/08 12:40:56;;;;;;;7.78;5.60;;;28.50;98.40;;;;;;5104666;28;20559;-77
2023/06/08 12:43:24;;;;;;;10.25;5.90;;;28.50;98.70;;;;;;5100537;28;20602;-77
2023/06/08 12:45:51;;;;;;;8.45;5.50;;;28.60;98.60;;;;;;5098693;28;20676;-79